Time;durP1;ratioP1;P1;durP2;ratioP2;P2;SDS_P1;SDS_P2;PMS_P1;PMS_P2;Temp;Humidity;BMP_temperature;BMP_pressure;BME280_temperature;BME280_humidity;BME280_pressure;Samples;Min_cycle;Max_cycle;Signal;HPM_P1;HPM_P2
2022/10/04 00:00:48;;;;;;;6.13;0.73;;;;;;;;;;5093267;28;20040;-73
2022/10/04 00:04:02;;;;;;;1.83;0.90;;;;;;;;;;5092818;28;20044;-71
2022/10/04 00:07:26;;;;;;;2.45;0.77;;;;;;;;;;5092782;28;20040;-73
2022/10/04 00:10:32;;;;;;;2.00;0.73;;;;;;;;;;5093118;28;20036;-72
2022/10/04 00:13:37;;;;;;;2.05;0.77;;;;;;;;;;5092453;28;20036;-72
2022/10/04 00:16:45;;;;;;;5.25;0.90;;;;;;;;;;5092508;28;20032;-72
2022/10/04 00:19:50;;;;;;;1.20;0.60;;;;;;;;;;5092823;28;20032;-72
2022/10/04 00:23:13;;;;;;;1.13;0.60;;;;;;;;;;5092673;28;20159;-73
2022/10/04 00:26:23;;;;;;;1.60;0.73;;;;;;;;;;5092484;28;20032;-71
2022/10/04 00:29:31;;;;;;;3.15;0.85;;;;;;;;;;5092436;28;20040;-72
2022/10/04 00:32:39;;;;;;;1.38;0.70;;;;;;;;;;5092407;28;20040;-72
2022/10/04 00:35:43;;;;;;;1.35;0.60;;;;;;;;;;5092168;28;20028;-72
2022/10/04 00:39:06;;;;;;;1.25;0.55;;;;;;;;;;5092271;28;20044;-73
2022/10/04 00:42:10;;;;;;;1.42;0.60;;;;;;;;;;5092310;28;20052;-72
2022/10/04 00:45:34;;;;;;;0.90;0.60;;;;;;;;;;5091231;28;20484;-71
2022/10/04 00:48:38;;;;;;;4.20;1.08;;;;;;;;;;5091557;28;20476;-72
2022/10/04 00:52:01;;;;;;;1.65;0.47;;;;;;;;;;5090910;28;20036;-71
2022/10/04 00:55:07;;;;;;;3.10;0.90;;;;;;;;;;5091642;28;20028;-72
2022/10/04 00:58:18;;;;;;;1.58;0.63;;;;;;;;;;5091701;28;20369;-73
2022/10/04 01:01:23;;;;;;;1.10;0.60;;;;;;;;;;5091852;28;20377;-74
2022/10/04 01:04:31;;;;;;;1.85;0.88;;;;;;;;;;5091925;28;20040;-73
2022/10/04 01:07:36;;;;;;;2.30;0.77;;;;;;;;;;5091738;28;20036;-73
2022/10/04 01:10:44;;;;;;;2.45;0.57;;;;;;;;;;5079234;28;20416;-72
2022/10/04 01:14:02;;;;;;;3.53;0.77;;;;;;;;;;5091207;28;20365;-72
2022/10/04 01:17:07;;;;;;;1.27;0.70;;;;;;;;;;5091659;28;20373;-72
2022/10/04 01:20:27;;;;;;;2.63;0.70;;;;;;;;;;5091406;28;20040;-72
2022/10/04 01:23:45;;;;;;;2.78;0.77;;;;;;;;;;5091246;28;20381;-72
2022/10/04 01:26:50;;;;;;;3.08;0.60;;;;;;;;;;5090921;28;20040;-70
2022/10/04 01:29:54;;;;;;;2.63;0.60;;;;;;;;;;5091296;28;20048;-72
2022/10/04 01:32:59;;;;;;;1.70;0.60;;;;;;;;;;5091152;28;20031;-72
2022/10/04 01:36:03;;;;;;;1.77;0.50;;;;;;;;;;5091297;28;20044;-72
2022/10/04 01:39:08;;;;;;;3.20;0.70;;;;;;;;;;5091500;28;20044;-73
2022/10/04 01:42:18;;;;;;;3.08;0.80;;;;;;;;;;5091240;28;20040;-72
2022/10/04 01:45:29;;;;;;;5.60;0.80;;;;;;;;;;5091316;28;20488;-71
2022/10/04 01:48:36;;;;;;;2.28;0.88;;;;;;;;;;5091012;28;20036;-73
2022/10/04 01:51:45;;;;;;;1.92;0.90;;;;;;;;;;5090977;28;20040;-72
2022/10/04 01:54:52;;;;;;;1.52;0.90;;;;;;;;;;5089979;28;20032;-73
2022/10/04 01:58:02;;;;;;;1.77;0.77;;;;;;;;;;5090855;28;20380;-72
2022/10/04 02:01:16;;;;;;;3.65;0.88;;;;;;;;;;5090050;28;20048;-72
2022/10/04 02:04:23;;;;;;;7.22;1.20;;;;;;;;;;5091144;28;20055;-73
2022/10/04 02:07:29;;;;;;;3.53;0.77;;;;;;;;;;5090733;28;20032;-72
2022/10/04 02:10:36;;;;;;;3.97;0.70;;;;;;;;;;5091123;28;20040;-73
2022/10/04 02:13:41;;;;;;;1.52;0.70;;;;;;;;;;5090765;28;20040;-72
2022/10/04 02:16:46;;;;;;;2.30;0.77;;;;;;;;;;5090108;28;20048;-74
2022/10/04 02:19:51;;;;;;;1.55;0.77;;;;;;;;;;5091200;28;20485;-72
2022/10/04 02:22:58;;;;;;;3.22;1.40;;;;;;;;;;5089684;28;20048;-73
2022/10/04 02:26:06;;;;;;;3.15;1.17;;;;;;;;;;5090591;28;20028;-72
2022/10/04 02:29:10;;;;;;;3.42;1.33;;;;;;;;;;5090071;28;20048;-73
2022/10/04 02:35:43;;;;;;;8.27;1.10;;;;;;;;;;5090641;28;20051;-73
2022/10/04 02:38:51;;;;;;;2.42;1.05;;;;;;;;;;5090275;28;20036;-72
2022/10/04 02:41:57;;;;;;;5.25;1.35;;;;;;;;;;5090806;28;20036;-73
2022/10/04 02:45:09;;;;;;;5.38;1.40;;;;;;;;;;5090149;28;20040;-72
2022/10/04 02:48:32;;;;;;;3.95;1.42;;;;;;;;;;5090591;28;20048;-73
2022/10/04 02:51:36;;;;;;;4.32;1.15;;;;;;;;;;5090686;28;20055;-72
2022/10/04 02:54:44;;;;;;;5.95;1.55;;;;;;;;;;5090200;28;20032;-73
2022/10/04 02:57:51;;;;;;;1.90;1.25;;;;;;;;;;5090775;28;20048;-72
2022/10/04 03:00:56;;;;;;;7.38;1.27;;;;;;;;;;5090459;28;20054;-72
2022/10/04 03:04:01;;;;;;;4.78;1.60;;;;;;;;;;5090127;28;20508;-72
2022/10/04 03:07:07;;;;;;;8.35;1.50;;;;;;;;;;5090514;28;20036;-72
2022/10/04 03:10:14;;;;;;;3.20;1.30;;;;;;;;;;5090223;28;20468;-72
2022/10/04 03:13:19;;;;;;;4.55;1.30;;;;;;;;;;5093855;28;20032;-73
2022/10/04 03:16:24;;;;;;;7.03;1.90;;;;;;;;;;5093568;28;20040;-72
2022/10/04 03:19:30;;;;;;;1.60;1.25;;;;;;;;;;5092979;28;20461;-72
2022/10/04 03:22:34;;;;;;;2.90;1.25;;;;;;;;;;5093059;28;20047;-73
2022/10/04 03:25:50;;;;;;;4.07;1.85;;;;;;;;;;5092806;28;20031;-73
2022/10/04 03:28:55;;;;;;;6.28;1.77;;;;;;;;;;5093262;28;20048;-72
2022/10/04 03:32:01;;;;;;;2.45;1.48;;;;;;;;;;5093542;28;20040;-73
2022/10/04 03:35:07;;;;;;;3.95;1.20;;;;;;;;;;5093632;28;20124;-73
2022/10/04 03:38:11;;;;;;;6.78;1.50;;;;;;;;;;5093242;28;20040;-73
2022/10/04 03:41:16;;;;;;;2.55;1.38;;;;;;;;;;5092526;28;20040;-73
2022/10/04 03:44:22;;;;;;;3.33;1.40;;;;;;;;;;5093026;28;20044;-73
2022/10/04 03:47:34;;;;;;;3.58;1.42;;;;;;;;;;5093015;28;20416;-75
2022/10/04 03:50:45;;;;;;;3.08;1.42;;;;;;;;;;5093251;28;20373;-72
2022/10/04 03:53:56;;;;;;;5.70;1.40;;;;;;;;;;5093067;28;20036;-73
2022/10/04 03:57:00;;;;;;;;;;;;;;;;;;5093468;28;20036;-73
2022/10/04 04:00:05;;;;;;;3.88;1.70;;;;;;;;;;5093168;28;20249;-72
2022/10/04 04:03:19;;;;;;;6.20;1.63;;;;;;;;;;5093049;28;20048;-74
2022/10/04 04:06:24;;;;;;;7.40;2.03;;;;;;;;;;5092737;28;20040;-72
2022/10/04 04:09:36;;;;;;;4.80;1.70;;;;;;;;;;5092864;28;20484;-72
2022/10/04 04:12:46;;;;;;;4.55;1.48;;;;;;;;;;5091833;28;20036;-72
2022/10/04 04:15:51;;;;;;;3.53;1.50;;;;;;;;;;5092665;28;20040;-72
2022/10/04 04:18:58;;;;;;;8.80;2.20;;;;;;;;;;5092557;28;20040;-73
2022/10/04 04:22:03;;;;;;;16.00;2.92;;;;;;;;;;5092816;28;20032;-72
2022/10/04 04:25:11;;;;;;;9.68;2.15;;;;;;;;;;5092353;28;20063;-73
2022/10/04 04:28:51;;;;;;;4.63;2.08;;;;;;;;;;5092221;28;20040;-73
2022/10/04 04:31:58;;;;;;;4.68;1.77;;;;;;;;;;5089902;28;20036;-72
2022/10/04 04:35:09;;;;;;;6.47;2.00;;;;;;;;;;5091962;28;20032;-73
2022/10/04 04:38:21;;;;;;;6.47;2.65;;;;;;;;;;5092184;28;20385;-72
2022/10/04 04:41:26;;;;;;;10.43;2.72;;;;;;;;;;5092508;28;20039;-72
2022/10/04 04:44:31;;;;;;;12.30;3.10;;;;;;;;;;5091685;28;20066;-72
2022/10/04 04:47:43;;;;;;;12.13;2.08;;;;;;;;;;5091992;28;20047;-71
2022/10/04 04:50:49;;;;;;;9.93;1.67;;;;;;;;;;5092009;28;20566;-72
2022/10/04 04:53:54;;;;;;;6.82;1.80;;;;;;;;;;5092117;28;20036;-72
2022/10/04 04:56:59;;;;;;;8.50;2.17;;;;;;;;;;5091641;28;20040;-74
2022/10/04 05:00:03;;;;;;;10.27;2.10;;;;;;;;;;5091873;28;20366;-72
2022/10/04 05:03:17;;;;;;;5.00;2.78;;;;;;;;;;5091609;28;20500;-74
2022/10/04 05:06:26;;;;;;;10.15;2.08;;;;;;;;;;5091615;28;20032;-71
2022/10/04 05:09:34;;;;;;;8.98;2.00;;;;;;;;;;5091416;28;20498;-72
2022/10/04 05:12:38;;;;;;;9.20;2.10;;;;;;;;;;5091691;28;20035;-72
2022/10/04 05:15:43;;;;;;;6.00;2.13;;;;;;;;;;5091111;28;20479;-72
2022/10/04 05:18:48;;;;;;;10.13;2.70;;;;;;;;;;5078689;28;20040;-72
2022/10/04 05:21:53;;;;;;;10.55;2.67;;;;;;;;;;5091560;28;20051;-72
2022/10/04 05:25:01;;;;;;;8.18;2.47;;;;;;;;;;5091403;28;20055;-74
2022/10/04 05:28:05;;;;;;;8.65;3.42;;;;;;;;;;5091275;28;20051;-72
2022/10/04 05:31:09;;;;;;;15.90;4.00;;;;;;;;;;5091422;28;20484;-73
2022/10/04 05:34:22;;;;;;;17.13;4.10;;;;;;;;;;5089902;28;20051;-73
2022/10/04 05:37:52;;;;;;;13.60;6.72;;;;;;;;;;5090649;28;20072;-72
2022/10/04 05:41:17;;;;;;;11.57;3.90;;;;;;;;;;5091264;28;20047;-73
2022/10/04 05:44:28;;;;;;;16.60;4.03;;;;;;;;;;5090352;28;20059;-73
2022/10/04 05:47:33;;;;;;;23.42;6.95;;;;;;;;;;5091108;28;20404;-76
2022/10/04 05:50:41;;;;;;;26.58;7.60;;;;;;;;;;5091222;28;20039;-76
2022/10/04 05:53:45;;;;;;;16.83;5.07;;;;;;;;;;5091070;28;20055;-76
2022/10/04 05:57:11;;;;;;;17.02;5.30;;;;;;;;;;5090864;28;20043;-75
2022/10/04 06:00:17;;;;;;;13.65;3.20;;;;;;;;;;5091041;28;20043;-75
2022/10/04 06:03:36;;;;;;;17.52;3.80;;;;;;;;;;5091012;28;20056;-75
2022/10/04 06:07:10;;;;;;;14.05;4.18;;;;;;;;;;5091074;28;20039;-75
2022/10/04 06:10:24;;;;;;;11.07;3.70;;;;;;;;;;5096042;28;20052;-75
2022/10/04 06:13:50;;;;;;;14.57;4.80;;;;;;;;;;5090702;28;20043;-74
2022/10/04 06:17:26;;;;;;;12.35;4.22;;;;;;;;;;5090419;28;20511;-74
2022/10/04 06:20:53;;;;;;;18.05;4.00;;;;;;;;;;5089959;28;20043;-82
2022/10/04 06:24:03;;;;;;;20.52;4.18;;;;;;;;;;5089862;28;20050;-81
2022/10/04 06:27:11;;;;;;;21.57;4.73;;;;;;;;;;5090762;28;20051;-74
2022/10/04 06:30:16;;;;;;;15.80;4.78;;;;;;;;;;5090212;28;20222;-77
2022/10/04 06:33:24;;;;;;;13.00;3.83;;;;;;;;;;5089959;28;20043;-75
2022/10/04 06:36:48;;;;;;;19.08;3.72;;;;;;;;;;5090643;28;20043;-74
2022/10/04 06:39:59;;;;;;;14.82;4.30;;;;;;;;;;5094026;28;20043;-69
2022/10/04 06:43:09;;;;;;;14.07;3.88;;;;;;;;;;5090107;28;20051;-71
2022/10/04 06:46:22;;;;;;;19.58;6.85;;;;;;;;;;5091000;28;20043;-76
2022/10/04 06:49:32;;;;;;;16.75;4.35;;;;;;;;;;5094341;28;20043;-75
2022/10/04 06:52:37;;;;;;;13.57;3.83;;;;;;;;;;5094424;28;20392;-75
2022/10/04 06:56:01;;;;;;;12.70;3.92;;;;;;;;;;5093954;28;20098;-76
2022/10/04 06:59:10;;;;;;;17.55;3.83;;;;;;;;;;5093365;28;20051;-75
2022/10/04 07:02:17;;;;;;;8.95;2.70;;;;;;;;;;5094229;28;20059;-77
2022/10/04 07:05:29;;;;;;;8.48;2.70;;;;;;;;;;5093783;28;20040;-73
2022/10/04 07:08:37;;;;;;;6.13;2.00;;;;;;;;;;5094072;28;20040;-75
2022/10/04 07:11:45;;;;;;;5.00;1.80;;;;;;;;;;5093658;28;20094;-75
2022/10/04 07:14:52;;;;;;;12.68;2.22;;;;;;;;;;5094095;28;20032;-75
2022/10/04 07:17:58;;;;;;;7.90;1.70;;;;;;;;;;5093610;28;20051;-76
2022/10/04 07:21:07;;;;;;;6.63;1.70;;;;;;;;;;5093944;28;20040;-78
2022/10/04 07:24:16;;;;;;;6.55;1.88;;;;;;;;;;5092714;28;20048;-77
2022/10/04 07:27:28;;;;;;;7.65;1.60;;;;;;;;;;5093447;28;20048;-76
2022/10/04 07:30:35;;;;;;;5.25;1.15;;;;;;;;;;5093580;28;20048;-77
2022/10/04 07:33:49;;;;;;;2.85;1.83;;;;;;;;;;5093642;28;20365;-76
2022/10/04 07:36:54;;;;;;;3.70;1.50;;;;;;;;;;5093201;28;20036;-78
2022/10/04 07:39:58;;;;;;;7.43;1.80;;;;;;;;;;5092612;28;20465;-81
2022/10/04 07:43:07;;;;;;;7.55;1.27;;;;;;;;;;5093389;28;20036;-79
2022/10/04 07:46:19;;;;;;;3.45;1.23;;;;;;;;;;5094666;28;20040;-76
2022/10/04 07:49:24;;;;;;;6.32;1.63;;;;;;;;;;5093956;28;20040;-75
2022/10/04 07:52:32;;;;;;;5.38;1.30;;;;;;;;;;5093506;28;20032;-76
2022/10/04 07:55:41;;;;;;;3.28;1.20;;;;;;;;;;5093379;28;20044;-77
2022/10/04 07:58:45;;;;;;;4.18;1.15;;;;;;;;;;5092025;28;20488;-72
2022/10/04 08:02:01;;;;;;;4.88;1.20;;;;;;;;;;5093016;28;20472;-75
2022/10/04 08:05:09;;;;;;;4.18;1.30;;;;;;;;;;5091275;28;20043;-78
2022/10/04 08:08:13;;;;;;;5.75;1.20;;;;;;;;;;5091464;28;20040;-75
2022/10/04 08:11:30;;;;;;;2.85;0.88;;;;;;;;;;5092964;28;20048;-75
2022/10/04 08:14:38;;;;;;;13.63;1.55;;;;;;;;;;5091766;28;20040;-75
2022/10/04 08:18:01;;;;;;;4.95;1.17;;;;;;;;;;5092202;28;20400;-75
2022/10/04 08:21:15;;;;;;;4.75;1.42;;;;;;;;;;5092578;28;20036;-76
2022/10/04 08:24:31;;;;;;;6.93;1.20;;;;;;;;;;5092045;28;20048;-75
2022/10/04 08:29:41;;;;;;;5.05;1.40;;;;;;;;;;5092017;28;20044;-75
2022/10/04 08:31:51;;;;;;;6.28;1.70;;;;;;;;;;5091969;28;20040;-78
2022/10/04 08:34:55;;;;;;;8.88;1.48;;;;;;;;;;5091018;28;20036;-75
2022/10/04 08:38:33;;;;;;;3.95;1.50;;;;;;;;;;5091188;28;20334;-74
2022/10/04 08:41:40;;;;;;;5.95;1.80;;;;;;;;;;5090957;28;20362;-72
2022/10/04 08:45:00;;;;;;;4.95;1.67;;;;;;;;;;5091934;28;20048;-78
2022/10/04 08:48:23;;;;;;;11.77;2.55;;;;;;;;;;5091913;28;20032;-76
2022/10/04 08:51:46;;;;;;;6.70;2.20;;;;;;;;;;5091298;28;20051;-75
2022/10/04 08:54:55;;;;;;;2.55;1.70;;;;;;;;;;5092325;28;20032;-75
2022/10/04 08:58:13;;;;;;;8.55;1.90;;;;;;;;;;5091911;28;20028;-73
2022/10/04 09:01:20;;;;;;;4.90;1.52;;;;;;;;;;5091902;28;20043;-73
2022/10/04 09:04:33;;;;;;;5.32;1.80;;;;;;;;;;5091584;28;20040;-76
2022/10/04 09:08:03;;;;;;;3.35;1.67;;;;;;;;;;5091904;28;20028;-74
2022/10/04 09:11:14;;;;;;;3.53;1.10;;;;;;;;;;5091694;28;20036;-73
2022/10/04 09:14:44;;;;;;;6.43;1.30;;;;;;;;;;5091637;28;20043;-71
2022/10/04 09:18:04;;;;;;;2.42;1.30;;;;;;;;;;5091463;28;20036;-74
2022/10/04 09:21:27;;;;;;;6.65;1.60;;;;;;;;;;5091638;28;20044;-75
2022/10/04 09:24:34;;;;;;;3.03;1.40;;;;;;;;;;5091424;28;20385;-73
2022/10/04 09:27:57;;;;;;;3.05;1.25;;;;;;;;;;5090585;28;20044;-73
2022/10/04 09:31:19;;;;;;;3.47;1.50;;;;;;;;;;5091501;28;20040;-72
2022/10/04 09:34:27;;;;;;;2.13;1.10;;;;;;;;;;5090416;28;20039;-74
2022/10/04 09:37:40;;;;;;;5.50;1.58;;;;;;;;;;5091460;28;20040;-73
2022/10/04 09:40:54;;;;;;;2.47;1.30;;;;;;;;;;5090561;28;20492;-71
2022/10/04 09:44:11;;;;;;;4.53;1.48;;;;;;;;;;5090998;28;20052;-77
2022/10/04 09:47:41;;;;;;;4.28;1.88;;;;;;;;;;5091248;28;20040;-74
2022/10/04 09:50:50;;;;;;;3.33;1.45;;;;;;;;;;5078862;28;20044;-72
2022/10/04 09:53:54;;;;;;;5.25;1.38;;;;;;;;;;5091161;28;20040;-74
2022/10/04 09:57:12;;;;;;;3.20;1.33;;;;;;;;;;5090852;28;20389;-77
2022/10/04 10:00:24;;;;;;;4.03;1.52;;;;;;;;;;5091000;28;20028;-80
2022/10/04 10:03:40;;;;;;;3.83;1.60;;;;;;;;;;5091003;28;20032;-80
2022/10/04 10:06:45;;;;;;;3.13;1.13;;;;;;;;;;5090631;28;20349;-76
2022/10/04 10:13:41;;;;;;;5.88;1.40;;;;;;;;;;5090783;28;20032;-76
2022/10/04 10:16:52;;;;;;;11.88;1.55;;;;;;;;;;5091036;28;20143;-74
2022/10/04 10:20:10;;;;;;;4.47;1.50;;;;;;;;;;5090938;28;20043;-77
2022/10/04 10:23:28;;;;;;;4.68;1.25;;;;;;;;;;5093837;28;20483;-77
2022/10/04 10:26:54;;;;;;;11.85;1.90;;;;;;;;;;5094863;28;20044;-72
2022/10/04 10:30:02;;;;;;;10.18;1.85;;;;;;;;;;5094958;28;20059;-79
2022/10/04 10:33:25;;;;;;;14.73;2.25;;;;;;;;;;5082283;28;20074;-76
2022/10/04 10:36:48;;;;;;;2.92;1.05;;;;;;;;;;5094713;28;20051;-75
2022/10/04 10:39:56;;;;;;;3.60;1.05;;;;;;;;;;5094525;28;20044;-75
2022/10/04 10:43:04;;;;;;;9.38;1.50;;;;;;;;;;5094663;28;20036;-76
2022/10/04 10:46:14;;;;;;;2.17;1.20;;;;;;;;;;5094390;28;20048;-76
2022/10/04 10:49:37;;;;;;;6.38;1.30;;;;;;;;;;5094503;28;20032;-79
2022/10/04 10:53:03;;;;;;;5.60;1.25;;;;;;;;;;5094606;28;20024;-74
2022/10/04 10:56:22;;;;;;;2.58;1.35;;;;;;;;;;5093481;28;20036;-75
2022/10/04 10:59:36;;;;;;;4.40;1.58;;;;;;;;;;5094499;28;20043;-74
2022/10/04 11:02:59;;;;;;;4.32;1.40;;;;;;;;;;5094009;28;20036;-73
2022/10/04 11:06:29;;;;;;;3.13;2.00;;;;;;;;;;5093812;28;20036;-73
2022/10/04 11:09:46;;;;;;;7.95;2.05;;;;;;;;;;5092643;28;20040;-74
2022/10/04 11:12:56;;;;;;;6.43;1.60;;;;;;;;;;5093645;28;20036;-72
2022/10/04 11:16:20;;;;;;;15.97;1.80;;;;;;;;;;5093679;28;20036;-75
2022/10/04 11:19:36;;;;;;;8.48;1.67;;;;;;;;;;5093576;28;20047;-75
2022/10/04 11:23:00;;;;;;;6.28;2.08;;;;;;;;;;5093214;28;20036;-74
2022/10/04 11:26:17;;;;;;;11.80;2.28;;;;;;;;;;5093463;28;20056;-74
2022/10/04 11:29:21;;;;;;;3.13;1.60;;;;;;;;;;5094012;28;20051;-75
2022/10/04 11:32:29;;;;;;;6.45;1.90;;;;;;;;;;5092566;28;20484;-74
2022/10/04 11:35:54;;;;;;;10.60;2.13;;;;;;;;;;5093419;28;20032;-75
2022/10/04 11:39:07;;;;;;;7.32;2.15;;;;;;;;;;5093117;28;20408;-76
2022/10/04 11:42:16;;;;;;;5.07;2.00;;;;;;;;;;5093707;28;20035;-74
2022/10/04 11:45:32;;;;;;;4.90;1.80;;;;;;;;;;5092984;28;20056;-73
2022/10/04 11:48:42;;;;;;;5.38;2.28;;;;;;;;;;5093542;28;20044;-75
2022/10/04 11:52:03;;;;;;;10.35;1.80;;;;;;;;;;5093279;28;20044;-72
2022/10/04 11:55:30;;;;;;;2.08;1.20;;;;;;;;;;5093278;28;20507;-74
2022/10/04 11:58:48;;;;;;;4.10;1.80;;;;;;;;;;5093239;28;20044;-74
2022/10/04 12:02:12;;;;;;;3.92;1.10;;;;;;;;;;5093366;28;20032;-74
2022/10/04 12:05:22;;;;;;;4.00;1.20;;;;;;;;;;5092995;28;20052;-73
2022/10/04 12:08:47;;;;;;;9.60;1.70;;;;;;;;;;5092251;28;20028;-73
2022/10/04 12:15:44;;;;;;;2.45;1.02;;;;;;;;;;5093022;28;20051;-74
2022/10/04 12:19:00;;;;;;;5.57;1.02;;;;;;;;;;5092778;28;20040;-76
2022/10/04 12:22:04;;;;;;;4.35;1.35;;;;;;;;;;5091691;28;20047;-74
2022/10/04 12:25:12;;;;;;;5.30;1.50;;;;;;;;;;5091607;28;20055;-77
2022/10/04 12:28:43;;;;;;;2.78;1.38;;;;;;;;;;5092906;28;20048;-74
2022/10/04 12:31:47;;;;;;;5.63;1.20;;;;;;;;;;5092129;28;20028;-76
2022/10/04 12:35:01;;;;;;;4.72;1.23;;;;;;;;;;5092558;28;20394;-74
2022/10/04 12:38:12;;;;;;;8.38;1.08;;;;;;;;;;5092526;28;20036;-74
2022/10/04 12:41:32;;;;;;;2.37;1.00;;;;;;;;;;5092449;28;20039;-73
2022/10/04 12:44:43;;;;;;;2.22;0.80;;;;;;;;;;5091410;28;20491;-77
2022/10/04 12:47:47;;;;;;;4.75;1.10;;;;;;;;;;5092224;28;20377;-78
2022/10/04 12:51:01;;;;;;;4.63;1.27;;;;;;;;;;5091891;28;20286;-81
2022/10/04 12:54:12;;;;;;;2.65;1.20;;;;;;;;;;5091298;28;20040;-80
2022/10/04 12:57:25;;;;;;;4.20;1.10;;;;;;;;;;5091759;28;20040;-82
2022/10/04 13:00:34;;;;;;;4.63;1.00;;;;;;;;;;5091187;28;20040;-74
2022/10/04 13:03:44;;;;;;;3.60;1.45;;;;;;;;;;5091608;28;20036;-72
2022/10/04 13:06:55;;;;;;;4.73;1.50;;;;;;;;;;5091823;28;20047;-73
2022/10/04 13:10:09;;;;;;;3.88;1.00;;;;;;;;;;5091655;28;20024;-73
2022/10/04 13:13:13;;;;;;;2.63;1.13;;;;;;;;;;5091852;28;20036;-71
2022/10/04 13:16:37;;;;;;;5.18;1.05;;;;;;;;;;5091824;28;20031;-71
2022/10/04 13:20:16;;;;;;;3.72;1.00;;;;;;;;;;5091968;28;20032;-71
2022/10/04 13:23:27;;;;;;;6.97;1.00;;;;;;;;;;5088840;28;20028;-72
2022/10/04 13:26:47;;;;;;;3.65;1.10;;;;;;;;;;5091300;28;20040;-72
2022/10/04 13:30:01;;;;;;;4.20;1.00;;;;;;;;;;5091635;28;20044;-73
2022/10/04 13:33:25;;;;;;;4.57;1.20;;;;;;;;;;5091090;28;20278;-72
2022/10/04 13:36:41;;;;;;;3.97;1.20;;;;;;;;;;5090999;28;20503;-72
2022/10/04 13:39:55;;;;;;;4.50;1.58;;;;;;;;;;5091291;28;20035;-72
2022/10/04 13:43:02;;;;;;;4.57;1.38;;;;;;;;;;5091473;28;20039;-76
2022/10/04 13:46:25;;;;;;;3.65;1.00;;;;;;;;;;5090980;28;20032;-75
2022/10/04 13:49:36;;;;;;;3.97;0.98;;;;;;;;;;5090824;28;20040;-73
2022/10/04 13:56:39;;;;;;;2.08;0.90;;;;;;;;;;5090755;28;20036;-72
2022/10/04 13:59:47;;;;;;;3.45;1.10;;;;;;;;;;5091096;28;20040;-72
2022/10/04 14:03:20;;;;;;;2.08;1.00;;;;;;;;;;5091192;28;20032;-73
2022/10/04 14:06:33;;;;;;;1.73;1.08;;;;;;;;;;5089752;28;20051;-74
2022/10/04 14:09:44;;;;;;;3.28;1.00;;;;;;;;;;5089637;28;20469;-74
2022/10/04 14:12:48;;;;;;;6.30;1.13;;;;;;;;;;5090812;28;20171;-73
2022/10/04 14:16:11;;;;;;;3.38;1.00;;;;;;;;;;5090491;28;20036;-73
2022/10/04 14:19:16;;;;;;;4.07;0.98;;;;;;;;;;5090882;28;20036;-76
2022/10/04 14:22:21;;;;;;;6.13;0.95;;;;;;;;;;5090912;28;20040;-76
2022/10/04 14:25:38;;;;;;;2.42;1.10;;;;;;;;;;5090513;28;20044;-73
2022/10/04 14:29:01;;;;;;;3.22;1.20;;;;;;;;;;5090327;28;20389;-74
2022/10/04 14:32:20;;;;;;;7.65;1.02;;;;;;;;;;5090939;28;20044;-74
2022/10/04 14:35:35;;;;;;;2.40;1.00;;;;;;;;;;5091031;28;20036;-73
2022/10/04 14:38:51;;;;;;;3.55;0.82;;;;;;;;;;5090038;28;20040;-73
2022/10/04 14:42:14;;;;;;;6.72;1.23;;;;;;;;;;5090775;28;20499;-74
2022/10/04 14:45:18;;;;;;;6.00;1.25;;;;;;;;;;5090473;28;20036;-75
2022/10/04 14:48:23;;;;;;;2.13;1.00;;;;;;;;;;5090883;28;20036;-72
2022/10/04 14:51:43;;;;;;;4.78;1.15;;;;;;;;;;5090665;28;20044;-76
2022/10/04 14:54:52;;;;;;;2.20;0.90;;;;;;;;;;5090269;28;20028;-73
2022/10/04 14:58:12;;;;;;;3.95;1.27;;;;;;;;;;5090420;28;20464;-72
2022/10/04 15:01:25;;;;;;;6.28;1.38;;;;;;;;;;5090421;28;20036;-72
2022/10/04 15:04:57;;;;;;;2.33;1.10;;;;;;;;;;5090198;28;20186;-72
2022/10/04 15:08:01;;;;;;;;;;;;;;;;;;5092736;28;20036;-74
2022/10/04 15:11:07;;;;;;;1.92;0.80;;;;;;;;;;5094559;28;19935;-74
2022/10/04 15:14:40;;;;;;;4.18;1.10;;;;;;;;;;5094081;28;20050;-74
2022/10/04 15:17:47;;;;;;;3.80;1.17;;;;;;;;;;5093446;28;20044;-72
2022/10/04 15:21:18;;;;;;;1.88;0.82;;;;;;;;;;5094526;28;20480;-77
2022/10/04 15:24:26;;;;;;;2.78;1.02;;;;;;;;;;5093887;28;20048;-76
2022/10/04 15:27:33;;;;;;;2.72;1.23;;;;;;;;;;5093862;28;20044;-73
2022/10/04 15:30:48;;;;;;;3.50;1.02;;;;;;;;;;5093922;28;20036;-71
2022/10/04 15:33:59;;;;;;;2.08;0.90;;;;;;;;;;5093919;28;20044;-80
2022/10/04 15:37:10;;;;;;;4.10;1.23;;;;;;;;;;5093829;28;20389;-73
2022/10/04 15:40:15;;;;;;;2.00;0.88;;;;;;;;;;5081000;28;20777;-76
2022/10/04 15:43:23;;;;;;;3.05;1.00;;;;;;;;;;5093410;28;20032;-72
2022/10/04 15:46:34;;;;;;;5.50;1.08;;;;;;;;;;5092488;28;20043;-74
2022/10/04 15:49:48;;;;;;;2.08;0.77;;;;;;;;;;5093340;28;20040;-77
2022/10/04 15:53:11;;;;;;;3.17;1.13;;;;;;;;;;5093441;28;20036;-72
2022/10/04 15:56:44;;;;;;;2.30;0.90;;;;;;;;;;5093353;28;20040;-74
2022/10/04 15:59:52;;;;;;;6.88;1.10;;;;;;;;;;5092918;28;20031;-74
2022/10/04 16:03:09;;;;;;;4.70;1.13;;;;;;;;;;5093166;28;20044;-70
2022/10/04 16:06:21;;;;;;;3.53;1.55;;;;;;;;;;5092086;28;20044;-75
2022/10/04 16:09:25;;;;;;;4.70;1.42;;;;;;;;;;5092924;28;20032;-78
2022/10/04 16:12:48;;;;;;;3.60;1.23;;;;;;;;;;5091957;28;20496;-74
2022/10/04 16:16:12;;;;;;;4.50;1.55;;;;;;;;;;5092616;28;20036;-78
2022/10/04 16:19:16;;;;;;;4.63;1.65;;;;;;;;;;5090510;28;20048;-73
2022/10/04 16:22:28;;;;;;;3.72;1.45;;;;;;;;;;5091810;28;20036;-79
2022/10/04 16:25:37;;;;;;;5.78;1.88;;;;;;;;;;5092378;28;20044;-77
2022/10/04 16:29:20;;;;;;;3.05;1.30;;;;;;;;;;5092172;28;20043;-80
2022/10/04 16:32:56;;;;;;;4.30;1.70;;;;;;;;;;5089539;28;20032;-79
2022/10/04 16:36:03;;;;;;;4.85;2.58;;;;;;;;;;5073505;28;20043;-78
2022/10/04 16:42:39;;;;;;;4.35;2.42;;;;;;;;;;5092521;28;20039;-79
2022/10/04 16:45:44;;;;;;;5.38;2.40;;;;;;;;;;5091337;28;20044;-79
2022/10/04 16:48:56;;;;;;;9.13;2.95;;;;;;;;;;5092052;28;20036;-78
2022/10/04 16:52:33;;;;;;;7.75;2.72;;;;;;;;;;5091027;28;20044;-77
2022/10/04 16:55:56;;;;;;;13.05;2.95;;;;;;;;;;5091505;28;20036;-81
2022/10/04 16:59:04;;;;;;;7.15;2.53;;;;;;;;;;5091781;28;20043;-79
2022/10/04 17:02:29;;;;;;;14.40;3.63;;;;;;;;;;5091735;28;20032;-78
2022/10/04 17:05:39;;;;;;;7.95;2.67;;;;;;;;;;5090990;28;20051;-79
2022/10/04 17:08:51;;;;;;;11.43;2.78;;;;;;;;;;5090087;28;20484;-80
2022/10/04 17:11:56;;;;;;;6.75;2.05;;;;;;;;;;5091418;28;20051;-80
2022/10/04 17:15:19;;;;;;;7.70;2.25;;;;;;;;;;5091435;28;20040;-80
2022/10/04 17:18:43;;;;;;;8.35;2.72;;;;;;;;;;5091251;28;20039;-79
2022/10/04 17:22:02;;;;;;;9.60;2.78;;;;;;;;;;5091739;28;20036;-79
2022/10/04 17:25:27;;;;;;;14.88;2.92;;;;;;;;;;5091531;28;20044;-80
2022/10/04 17:28:47;;;;;;;16.70;3.85;;;;;;;;;;5091132;28;20059;-80
2022/10/04 17:31:57;;;;;;;14.40;3.88;;;;;;;;;;5091506;28;20047;-80
2022/10/04 17:35:24;;;;;;;14.70;4.13;;;;;;;;;;5090152;28;20039;-81
2022/10/04 17:38:29;;;;;;;16.77;5.10;;;;;;;;;;5090458;28;20039;-80
2022/10/04 17:41:36;;;;;;;10.10;3.65;;;;;;;;;;5091244;28;20043;-81
2022/10/04 17:44:53;;;;;;;15.55;4.20;;;;;;;;;;5091002;28;20055;-80
2022/10/04 17:55:14;;;;;;;7.78;3.70;;;;;;;;;;5090789;28;20051;-74
2022/10/04 17:58:29;;;;;;;14.43;3.50;;;;;;;;;;5091443;28;20154;-73
2022/10/04 18:01:35;;;;;;;9.63;3.33;;;;;;;;;;5091667;28;20113;-73
2022/10/04 18:04:47;;;;;;;11.48;3.67;;;;;;;;;;5091293;28;20036;-73
2022/10/04 18:08:00;;;;;;;10.88;4.10;;;;;;;;;;5090847;28;20047;-74
2022/10/04 18:11:16;;;;;;;9.40;4.07;;;;;;;;;;5090016;28;20519;-73
2022/10/04 18:14:22;;;;;;;16.05;3.92;;;;;;;;;;5090493;28;20036;-74
2022/10/04 18:17:27;;;;;;;12.20;3.70;;;;;;;;;;5092468;28;20043;-72
2022/10/04 18:20:34;;;;;;;12.52;4.13;;;;;;;;;;5090937;28;20047;-74
2022/10/04 18:23:50;;;;;;;9.43;3.60;;;;;;;;;;5091076;28;20503;-73
2022/10/04 18:26:58;;;;;;;13.80;4.13;;;;;;;;;;5090942;28;20052;-73
2022/10/04 18:30:15;;;;;;;8.00;3.10;;;;;;;;;;5090618;28;20043;-73
2022/10/04 18:33:30;;;;;;;11.73;4.70;;;;;;;;;;5090693;28;20024;-74
2022/10/04 18:36:50;;;;;;;6.30;3.80;;;;;;;;;;5089875;28;20039;-74
2022/10/04 18:40:02;;;;;;;6.53;3.25;;;;;;;;;;5090013;28;20365;-75
2022/10/04 18:43:23;;;;;;;6.50;2.97;;;;;;;;;;5092422;28;20032;-74
2022/10/04 18:46:37;;;;;;;11.70;3.60;;;;;;;;;;5094592;28;20044;-73
2022/10/04 18:49:47;;;;;;;9.63;3.15;;;;;;;;;;5094575;28;20043;-73
2022/10/04 18:53:01;;;;;;;12.18;3.42;;;;;;;;;;5094373;28;20040;-73
2022/10/04 18:56:07;;;;;;;11.32;3.33;;;;;;;;;;5094010;28;20047;-73
2022/10/04 19:02:39;;;;;;;7.03;2.95;;;;;;;;;;5094332;28;20040;-73
2022/10/04 19:06:19;;;;;;;7.50;3.20;;;;;;;;;;5093897;28;20416;-75
2022/10/04 19:09:30;;;;;;;6.65;3.40;;;;;;;;;;5091820;28;20032;-73
2022/10/04 19:13:06;;;;;;;7.55;3.83;;;;;;;;;;5094153;28;20293;-74
2022/10/04 19:16:14;;;;;;;7.57;3.88;;;;;;;;;;5093444;28;20032;-73
2022/10/04 19:19:27;;;;;;;9.55;3.92;;;;;;;;;;5093270;28;20028;-74
2022/10/04 19:22:41;;;;;;;11.43;4.22;;;;;;;;;;5093897;28;20036;-73
2022/10/04 19:26:04;;;;;;;14.32;4.57;;;;;;;;;;5093700;28;20051;-73
2022/10/04 19:29:32;;;;;;;11.48;4.47;;;;;;;;;;5094068;28;20071;-72
2022/10/04 19:32:52;;;;;;;11.85;4.63;;;;;;;;;;5092978;28;20047;-72
2022/10/04 19:36:03;;;;;;;10.98;5.32;;;;;;;;;;5093582;28;20189;-74
2022/10/04 19:39:07;;;;;;;11.55;4.40;;;;;;;;;;5093931;28;20043;-73
2022/10/04 19:42:16;;;;;;;14.85;4.88;;;;;;;;;;5093695;28;20043;-73